Aviation Digital Data Service (ADDS)

Output produced by METARs form (0553 UTC 23 October 2014)
found at http://aviationweather.gov/adds/metars/
 
KHUL 230540Z 2306/2406 05012KT P6SM -RA OVC015 
     FM230800 05012KT 5SM -RA OVC007 
     FM231100 05012KT 3SM -RA SCT007 OVC015 
     FM231700 05012G22KT 3SM +RA OVC010 
     FM240000 05016G24KT 3SM +RA OVC007